Time;durP1;ratioP1;P1;durP2;ratioP2;P2;SDS_P1;SDS_P2;PMS_P1;PMS_P2;Temp;Humidity;BMP_temperature;BMP_pressure;BME280_temperature;BME280_humidity;BME280_pressure;Samples;Min_cycle;Max_cycle;Signal;HPM_P1;HPM_P2
2021/06/06 00:00:20;;;;;;;8.82;8.02;;;21.10;62.20;;;;;;3157089;28;20079;-76
2021/06/06 00:01:51;;;;;;;8.07;7.35;;;21.10;62.10;;;;;;3158689;28;20080;-76
2021/06/06 00:03:24;;;;;;;8.18;7.47;;;21.10;62.20;;;;;;3158819;28;20056;-76
2021/06/06 00:04:55;;;;;;;;;;;21.10;62.40;;;;;;3159398;28;20055;-77
2021/06/06 00:06:28;;;;;;;8.38;7.68;;;21.10;62.20;;;;;;3158191;28;19946;-78
2021/06/06 00:07:59;;;;;;;8.55;7.78;;;21.10;62.40;;;;;;3158749;28;20054;-77
2021/06/06 00:09:30;;;;;;;8.10;7.30;;;21.10;62.30;;;;;;3158884;28;20126;-77
2021/06/06 00:11:06;;;;;;;8.52;7.63;;;21.10;62.40;;;;;;3158165;28;20131;-77
2021/06/06 00:12:37;;;;;;;8.32;7.63;;;21.10;62.30;;;;;;3158729;28;20535;-77
2021/06/06 00:14:09;;;;;;;8.45;7.70;;;21.00;62.10;;;;;;3158676;28;20080;-77
2021/06/06 00:15:43;;;;;;;8.23;7.53;;;21.10;62.30;;;;;;3157455;28;20123;-77
2021/06/06 00:17:14;;;;;;;8.52;7.80;;;21.00;62.20;;;;;;3158512;28;20052;-76
2021/06/06 00:18:45;;;;;;;8.10;7.40;;;21.10;62.30;;;;;;3158772;28;20158;-77
2021/06/06 00:20:16;;;;;;;8.07;7.28;;;21.10;62.40;;;;;;3157983;28;20524;-77
2021/06/06 00:21:47;;;;;;;8.60;7.80;;;21.10;62.20;;;;;;3158919;28;20457;-76
2021/06/06 00:23:19;;;;;;;8.40;7.70;;;21.10;62.30;;;;;;3158523;28;20079;-76
2021/06/06 00:24:50;;;;;;;8.43;7.63;;;21.10;62.40;;;;;;3158660;28;20551;-77
2021/06/06 00:26:21;;;;;;;8.77;7.93;;;21.10;62.30;;;;;;3158189;28;20048;-77
2021/06/06 00:27:52;;;;;;;8.60;7.90;;;21.10;62.40;;;;;;3158762;28;20079;-77
2021/06/06 00:29:23;;;;;;;8.70;8.00;;;21.10;62.40;;;;;;3158490;28;20129;-76
2021/06/06 00:30:55;;;;;;;8.32;7.60;;;21.10;62.40;;;;;;3157013;28;20115;-77
2021/06/06 00:32:27;;;;;;;7.93;7.32;;;21.10;62.50;;;;;;3158642;28;20520;-77
2021/06/06 00:33:58;;;;;;;8.60;7.80;;;21.10;62.40;;;;;;3158510;28;20117;-78
2021/06/06 00:35:29;;;;;;;8.40;7.70;;;21.10;62.40;;;;;;3157994;28;20548;-77
2021/06/06 00:37:00;;;;;;;8.15;7.45;;;21.10;62.20;;;;;;3158581;28;20087;-76
2021/06/06 00:38:31;;;;;;;8.48;7.78;;;21.10;62.50;;;;;;3158741;28;20453;-76
2021/06/06 00:40:03;;;;;;;8.73;8.00;;;21.00;62.40;;;;;;3158245;28;20048;-77
2021/06/06 00:41:36;;;;;;;9.00;8.20;;;21.10;62.50;;;;;;3158023;28;20193;-77
2021/06/06 00:43:07;;;;;;;8.88;8.07;;;21.10;62.40;;;;;;3158543;28;20055;-77
2021/06/06 00:44:38;;;;;;;9.48;8.68;;;21.10;62.30;;;;;;3158773;28;20137;-77
2021/06/06 00:46:10;;;;;;;8.73;7.93;;;21.10;62.40;;;;;;3157284;28;20113;-77
2021/06/06 00:47:41;;;;;;;8.98;8.18;;;21.10;62.50;;;;;;3158581;28;20485;-77
2021/06/06 00:49:12;;;;;;;8.48;7.68;;;21.10;62.40;;;;;;3159854;28;20055;-77
2021/06/06 00:50:44;;;;;;;8.73;7.93;;;21.10;62.40;;;;;;3160305;28;20516;-76
2021/06/06 00:52:16;;;;;;;8.32;7.63;;;21.10;62.60;;;;;;3160702;28;20105;-77
2021/06/06 00:53:48;;;;;;;8.68;7.90;;;21.10;62.50;;;;;;3160755;28;20044;-77
2021/06/06 00:55:19;;;;;;;8.57;7.88;;;21.10;62.40;;;;;;3160326;28;20564;-76
2021/06/06 00:56:52;;;;;;;8.75;7.90;;;21.10;62.40;;;;;;3160859;28;20149;-77
2021/06/06 00:58:23;;;;;;;9.18;8.00;;;21.10;62.40;;;;;;3160759;28;20079;-77
2021/06/06 01:00:01;;;;;;;8.68;7.88;;;21.10;62.40;;;;;;3160510;28;20087;-76
2021/06/06 01:01:33;;;;;;;8.65;7.90;;;21.10;62.40;;;;;;3159502;28;20043;-77
2021/06/06 01:03:04;;;;;;;8.68;7.88;;;21.10;62.30;;;;;;3160679;28;20048;-76
2021/06/06 01:04:35;;;;;;;9.02;8.13;;;21.10;62.40;;;;;;3160570;28;20075;-76
2021/06/06 01:06:14;;;;;;;9.25;8.45;;;21.10;62.40;;;;;;3160097;28;20512;-77
2021/06/06 01:07:44;;;;;;;8.85;8.05;;;21.10;62.40;;;;;;3160855;28;20072;-77
2021/06/06 01:09:17;;;;;;;8.27;7.57;;;21.10;62.50;;;;;;3160511;28;20071;-77
2021/06/06 01:10:53;;;;;;;8.48;7.72;;;21.10;62.40;;;;;;3159926;28;20125;-76
2021/06/06 01:12:25;;;;;;;8.95;8.15;;;21.10;62.50;;;;;;3160521;28;20055;-76
2021/06/06 01:13:59;;;;;;;9.40;8.18;;;21.10;62.40;;;;;;3160844;28;20076;-76
2021/06/06 01:15:31;;;;;;;9.07;8.18;;;21.10;62.60;;;;;;3159129;28;20110;-77
2021/06/06 01:17:06;;;;;;;8.40;7.55;;;21.10;62.40;;;;;;3160423;28;20047;-78
2021/06/06 01:18:38;;;;;;;9.02;8.20;;;21.10;62.40;;;;;;3160680;28;20075;-75
2021/06/06 01:20:11;;;;;;;8.40;7.70;;;21.10;62.60;;;;;;3160398;28;20081;-77
2021/06/06 01:21:49;;;;;;;8.82;7.95;;;21.10;62.40;;;;;;3159986;28;20051;-76
2021/06/06 01:23:38;;;;;;;8.40;7.70;;;21.10;62.60;;;;;;3160514;28;20044;-77
2021/06/06 01:25:11;;;;;;;8.30;7.60;;;21.10;62.40;;;;;;3160541;28;20488;-77
2021/06/06 01:26:44;;;;;;;8.65;7.85;;;21.10;62.40;;;;;;3160404;28;20079;-77
2021/06/06 01:28:17;;;;;;;8.82;8.07;;;21.10;62.60;;;;;;3160539;28;20044;-77
2021/06/06 01:29:49;;;;;;;9.27;8.40;;;21.10;62.50;;;;;;3160218;28;20599;-77
2021/06/06 01:31:20;;;;;;;9.43;8.60;;;21.10;62.60;;;;;;3159128;28;20079;-76
2021/06/06 01:32:53;;;;;;;9.38;8.57;;;21.10;62.50;;;;;;3160651;28;20048;-76
2021/06/06 01:34:25;;;;;;;9.45;8.65;;;21.10;62.60;;;;;;3160260;28;20036;-76
2021/06/06 01:35:58;;;;;;;9.02;8.23;;;21.10;62.50;;;;;;3159733;28;20044;-77
2021/06/06 01:37:29;;;;;;;8.75;7.95;;;21.10;62.50;;;;;;3160255;28;20076;-76
2021/06/06 01:39:02;;;;;;;9.00;8.20;;;21.10;62.40;;;;;;3160510;28;20132;-77
2021/06/06 01:40:35;;;;;;;8.95;8.15;;;21.10;62.50;;;;;;3159540;28;20173;-77
2021/06/06 01:42:09;;;;;;;9.55;8.70;;;21.10;62.40;;;;;;3160332;28;20072;-76
2021/06/06 01:43:45;;;;;;;9.13;8.32;;;21.10;62.40;;;;;;3161928;28;20530;-75
2021/06/06 01:45:17;;;;;;;9.13;8.32;;;21.10;62.40;;;;;;3159711;28;20040;-76
2021/06/06 01:46:50;;;;;;;8.93;8.13;;;21.10;62.40;;;;;;3161074;28;20135;-77
2021/06/06 01:48:22;;;;;;;7.78;7.18;;;21.10;62.60;;;;;;3160887;28;20058;-76
2021/06/06 01:49:53;;;;;;;8.70;8.00;;;21.10;62.50;;;;;;3159990;28;20082;-78
2021/06/06 01:51:25;;;;;;;8.63;7.72;;;21.10;62.50;;;;;;3159661;28;20069;-76
2021/06/06 01:52:57;;;;;;;8.93;8.03;;;21.10;62.40;;;;;;3160263;28;20469;-78
2021/06/06 01:54:29;;;;;;;9.45;8.65;;;21.10;62.50;;;;;;3159970;28;20469;-77
2021/06/06 01:56:03;;;;;;;8.93;8.10;;;21.10;62.50;;;;;;3159441;28;20044;-77
2021/06/06 01:57:34;;;;;;;9.50;8.68;;;21.10;62.60;;;;;;3160157;28;20715;-77
2021/06/06 01:59:07;;;;;;;8.65;7.95;;;21.10;62.40;;;;;;3159815;28;20109;-77
2021/06/06 02:00:39;;;;;;;8.88;8.18;;;21.10;62.60;;;;;;3158481;28;20039;-77
2021/06/06 02:02:11;;;;;;;8.13;7.40;;;21.10;62.40;;;;;;3159641;28;20079;-78
2021/06/06 02:03:42;;;;;;;8.63;7.93;;;21.10;62.40;;;;;;3160183;28;20091;-77
2021/06/06 02:05:15;;;;;;;8.65;7.88;;;21.10;62.50;;;;;;3159836;28;20102;-76
2021/06/06 02:06:48;;;;;;;9.48;8.60;;;21.10;62.40;;;;;;3159080;28;20105;-77
2021/06/06 02:08:19;;;;;;;8.68;7.88;;;21.10;62.40;;;;;;3159802;28;20111;-77
2021/06/06 02:09:52;;;;;;;9.45;8.65;;;21.10;62.50;;;;;;3159752;28;20450;-77
2021/06/06 02:11:26;;;;;;;9.05;8.30;;;21.10;62.60;;;;;;3159420;28;20566;-77
2021/06/06 02:12:59;;;;;;;9.45;8.60;;;21.10;62.50;;;;;;3159879;28;20074;-76
2021/06/06 02:14:35;;;;;;;;;;;21.10;62.50;;;;;;3160445;28;20075;-77
2021/06/06 02:16:06;;;;;;;8.75;8.02;;;21.10;62.50;;;;;;3158409;28;20388;-77
2021/06/06 02:17:37;;;;;;;8.63;7.93;;;21.10;62.30;;;;;;3159855;28;20048;-77
2021/06/06 02:19:08;;;;;;;9.90;9.00;;;21.10;62.40;;;;;;3159828;28;20080;-77
2021/06/06 02:20:41;;;;;;;7.93;7.22;;;21.10;62.60;;;;;;3159234;28;20745;-76
2021/06/06 02:22:13;;;;;;;8.77;8.07;;;21.10;62.60;;;;;;3159632;28;20084;-76
2021/06/06 02:23:47;;;;;;;8.83;8.03;;;21.10;62.40;;;;;;3159794;28;20480;-77
2021/06/06 02:25:19;;;;;;;9.63;8.70;;;21.10;62.50;;;;;;3159171;28;20086;-76
2021/06/06 02:26:53;;;;;;;9.50;8.68;;;21.10;62.40;;;;;;3159801;28;20123;-77
2021/06/06 02:28:26;;;;;;;9.05;8.18;;;21.10;62.60;;;;;;3159526;28;20079;-76
2021/06/06 02:29:59;;;;;;;9.27;8.48;;;21.10;62.40;;;;;;3159590;28;20079;-77
2021/06/06 02:31:33;;;;;;;9.98;9.10;;;21.10;62.40;;;;;;3157969;28;20531;-76
2021/06/06 02:33:07;;;;;;;8.93;8.13;;;21.10;62.30;;;;;;3159763;28;20102;-76
2021/06/06 02:34:42;;;;;;;9.23;8.43;;;21.10;62.40;;;;;;3159427;28;20149;-76
2021/06/06 02:36:14;;;;;;;8.20;7.50;;;21.10;62.50;;;;;;3158980;28;20453;-77
2021/06/06 02:37:47;;;;;;;8.18;7.47;;;21.10;62.40;;;;;;3159432;28;20048;-77
2021/06/06 02:39:20;;;;;;;9.18;8.38;;;21.10;62.40;;;;;;3159691;28;20459;-76
2021/06/06 02:40:54;;;;;;;8.88;8.07;;;21.10;62.50;;;;;;3158864;28;20048;-76
2021/06/06 02:42:28;;;;;;;9.90;8.90;;;21.10;62.40;;;;;;3159020;28;20075;-76
2021/06/06 02:44:01;;;;;;;9.10;8.30;;;21.10;62.50;;;;;;3159553;28;20052;-76
2021/06/06 02:45:32;;;;;;;9.02;8.23;;;21.10;62.40;;;;;;3158511;28;20077;-77
2021/06/06 02:47:03;;;;;;;8.80;7.90;;;21.10;62.40;;;;;;3159386;28;20539;-76
2021/06/06 02:48:36;;;;;;;8.90;8.10;;;21.10;63.10;;;;;;3159533;28;20093;-77
2021/06/06 02:50:09;;;;;;;10.20;9.25;;;21.10;62.40;;;;;;3159221;28;20626;-77
2021/06/06 02:51:40;;;;;;;;;;;21.10;62.20;;;;;;3159399;28;20051;-77
2021/06/06 02:53:15;;;;;;;8.57;7.78;;;21.10;62.20;;;;;;3159357;28;19984;-76
2021/06/06 02:54:48;;;;;;;8.55;7.85;;;21.10;62.20;;;;;;3159310;28;20129;-77
2021/06/06 02:56:20;;;;;;;8.98;8.18;;;21.10;62.30;;;;;;3158681;28;20042;-77
2021/06/06 02:57:55;;;;;;;8.55;7.75;;;21.10;62.30;;;;;;3159127;28;20086;-77
2021/06/06 02:59:26;;;;;;;9.32;8.43;;;21.10;62.20;;;;;;3159204;28;20063;-78
2021/06/06 03:01:01;;;;;;;9.05;8.25;;;21.10;62.30;;;;;;3157603;28;20093;-77
2021/06/06 03:02:35;;;;;;;9.60;8.60;;;21.10;62.30;;;;;;3159073;28;20076;-76
2021/06/06 03:04:09;;;;;;;8.50;7.80;;;21.10;62.20;;;;;;3159356;28;20075;-76
2021/06/06 03:05:40;;;;;;;8.77;8.07;;;21.10;62.20;;;;;;3158692;28;20075;-77
2021/06/06 03:07:12;;;;;;;8.98;8.18;;;21.10;62.40;;;;;;3158989;28;20079;-76
2021/06/06 03:08:43;;;;;;;8.82;8.02;;;21.10;62.30;;;;;;3159380;28;20044;-77
2021/06/06 03:10:14;;;;;;;9.05;8.25;;;21.10;62.20;;;;;;3158935;28;20078;-77
2021/06/06 03:11:46;;;;;;;9.25;8.40;;;21.10;62.30;;;;;;3157972;28;20052;-77
2021/06/06 03:13:21;;;;;;;9.20;8.40;;;21.10;62.30;;;;;;3158942;28;20141;-76
2021/06/06 03:14:52;;;;;;;8.60;7.80;;;21.10;62.30;;;;;;3159173;28;20341;-76
2021/06/06 03:16:23;;;;;;;8.65;7.90;;;21.10;62.40;;;;;;3157584;28;20097;-77
2021/06/06 03:17:54;;;;;;;8.65;7.95;;;21.10;62.40;;;;;;3159114;28;20071;-77
2021/06/06 03:19:26;;;;;;;8.77;8.07;;;21.10;62.40;;;;;;3159031;28;20048;-77
2021/06/06 03:20:59;;;;;;;8.30;7.60;;;21.10;62.20;;;;;;3158393;28;20050;-76
2021/06/06 03:22:31;;;;;;;8.77;7.97;;;21.10;62.30;;;;;;3159051;28;20354;-77
2021/06/06 03:24:05;;;;;;;8.55;7.85;;;21.10;62.40;;;;;;3158875;28;20534;-77
2021/06/06 03:25:41;;;;;;;8.80;8.00;;;21.10;62.30;;;;;;3158664;28;20875;-77
2021/06/06 03:27:13;;;;;;;8.50;7.80;;;21.10;62.30;;;;;;3159027;28;20052;-77
2021/06/06 03:28:45;;;;;;;8.90;8.10;;;21.10;62.30;;;;;;3158970;28;20102;-76
2021/06/06 03:30:31;;;;;;;8.77;7.97;;;21.10;62.40;;;;;;3157509;28;20075;-77
2021/06/06 03:32:04;;;;;;;8.48;7.68;;;21.10;62.10;;;;;;3158989;28;20412;-77
2021/06/06 03:33:44;;;;;;;8.98;8.07;;;21.10;62.40;;;;;;3159169;28;20072;-77
2021/06/06 03:35:14;;;;;;;8.65;7.93;;;21.10;62.40;;;;;;3158286;28;20067;-77
2021/06/06 03:36:46;;;;;;;8.30;7.60;;;21.10;62.10;;;;;;3159003;28;20762;-77
2021/06/06 03:38:17;;;;;;;8.65;7.85;;;21.10;62.40;;;;;;3158906;28;20082;-76
2021/06/06 03:39:48;;;;;;;9.73;8.82;;;21.10;62.10;;;;;;3158889;28;20075;-76
2021/06/06 03:41:19;;;;;;;8.68;7.90;;;21.10;62.40;;;;;;3158421;28;20043;-77
2021/06/06 03:42:50;;;;;;;8.43;7.68;;;21.10;62.20;;;;;;3158834;28;20075;-77
2021/06/06 03:44:23;;;;;;;8.95;8.05;;;21.10;62.30;;;;;;3158973;28;20566;-76
2021/06/06 03:45:54;;;;;;;8.93;8.13;;;21.10;62.20;;;;;;3157719;28;20067;-77
2021/06/06 03:47:25;;;;;;;8.15;7.45;;;21.10;62.90;;;;;;3158638;28;20106;-78
2021/06/06 03:48:57;;;;;;;9.25;8.45;;;21.10;62.20;;;;;;3158837;28;20536;-77
2021/06/06 03:50:29;;;;;;;8.50;7.80;;;21.10;62.20;;;;;;3158129;28;20076;-77
2021/06/06 03:52:00;;;;;;;9.10;8.30;;;21.10;62.20;;;;;;3159008;28;20079;-77
2021/06/06 03:53:31;;;;;;;8.48;7.78;;;21.10;62.30;;;;;;3158831;28;20044;-77
2021/06/06 03:55:02;;;;;;;8.95;8.15;;;21.10;62.10;;;;;;3158553;28;20055;-77
2021/06/06 03:56:33;;;;;;;9.05;8.15;;;21.10;62.20;;;;;;3157993;28;20047;-76
2021/06/06 03:58:04;;;;;;;8.63;7.82;;;21.10;62.20;;;;;;3158394;28;20539;-76
2021/06/06 03:59:36;;;;;;;9.25;8.27;;;21.10;62.20;;;;;;3158425;28;20166;-77
2021/06/06 04:01:07;;;;;;;8.37;7.63;;;21.10;62.00;;;;;;3157005;28;20520;-76
2021/06/06 04:02:38;;;;;;;8.55;7.75;;;21.10;62.10;;;;;;3158686;28;20500;-76
2021/06/06 04:04:09;;;;;;;9.27;8.48;;;21.10;62.30;;;;;;3158602;28;20044;-76
2021/06/06 04:05:40;;;;;;;8.50;7.80;;;21.10;62.30;;;;;;3158664;28;20071;-77
2021/06/06 04:07:12;;;;;;;8.68;7.88;;;21.10;62.30;;;;;;3159448;28;20581;-76
2021/06/06 04:08:43;;;;;;;8.63;7.93;;;21.10;62.10;;;;;;3159888;28;20079;-76
2021/06/06 04:10:14;;;;;;;8.55;7.85;;;21.10;62.20;;;;;;3158404;28;20083;-77
2021/06/06 04:11:45;;;;;;;8.45;7.75;;;21.10;62.10;;;;;;3158362;28;20051;-77
2021/06/06 04:13:16;;;;;;;8.55;7.75;;;21.10;62.10;;;;;;3158723;28;20048;-77
2021/06/06 04:14:49;;;;;;;9.00;8.13;;;21.10;62.10;;;;;;3158575;28;20102;-76
2021/06/06 04:16:20;;;;;;;8.52;7.72;;;21.10;62.10;;;;;;3157420;28;20102;-77
2021/06/06 04:17:51;;;;;;;8.52;7.72;;;21.10;62.10;;;;;;3158660;28;20480;-77
2021/06/06 04:19:22;;;;;;;8.40;7.60;;;21.10;62.10;;;;;;3158951;28;20075;-77
2021/06/06 04:20:53;;;;;;;8.25;7.45;;;21.10;62.20;;;;;;3157949;28;20076;-77
2021/06/06 04:22:24;;;;;;;8.48;7.68;;;21.10;62.10;;;;;;3158676;28;20047;-77
2021/06/06 04:23:55;;;;;;;8.45;7.75;;;21.10;62.20;;;;;;3161397;28;20685;-77
2021/06/06 04:25:27;;;;;;;7.93;7.20;;;21.10;62.20;;;;;;3160870;28;20044;-77
2021/06/06 04:26:58;;;;;;;8.85;7.97;;;21.10;62.20;;;;;;3161075;28;20051;-76
2021/06/06 04:28:29;;;;;;;7.40;6.80;;;21.10;62.10;;;;;;3161182;28;20071;-77
2021/06/06 04:30:02;;;;;;;8.07;7.30;;;21.10;62.10;;;;;;3161112;28;20055;-77
2021/06/06 04:31:33;;;;;;;7.72;7.03;;;21.10;62.10;;;;;;3159827;28;20106;-77
2021/06/06 04:33:07;;;;;;;8.10;7.30;;;21.10;62.00;;;;;;3161060;28;20082;-77
2021/06/06 04:34:38;;;;;;;8.80;8.00;;;21.10;62.00;;;;;;3160957;28;20086;-77
2021/06/06 04:36:09;;;;;;;7.93;7.22;;;21.10;62.10;;;;;;3160508;28;20075;-77
2021/06/06 04:37:40;;;;;;;7.85;7.15;;;21.10;62.10;;;;;;3161138;28;20066;-77
2021/06/06 04:39:11;;;;;;;8.90;8.02;;;21.10;62.10;;;;;;3161002;28;20119;-77
2021/06/06 04:40:42;;;;;;;8.48;7.78;;;21.10;62.10;;;;;;3160475;28;20071;-77
2021/06/06 04:42:17;;;;;;;7.97;7.28;;;21.10;62.10;;;;;;3161107;28;20097;-76
2021/06/06 04:43:48;;;;;;;8.48;7.68;;;21.10;62.10;;;;;;3161061;28;20511;-77
2021/06/06 04:45:20;;;;;;;8.55;7.82;;;21.10;62.10;;;;;;3159437;28;20141;-76
2021/06/06 04:46:51;;;;;;;;;;;21.10;62.10;;;;;;3161554;28;20079;-77
2021/06/06 04:48:24;;;;;;;8.48;7.78;;;21.10;62.00;;;;;;3160878;28;19924;-76
2021/06/06 04:49:55;;;;;;;8.60;7.80;;;21.10;62.10;;;;;;3160657;28;20143;-77
2021/06/06 04:51:26;;;;;;;7.88;7.18;;;21.10;62.10;;;;;;3160364;28;20936;-77
2021/06/06 04:52:56;;;;;;;8.45;7.75;;;21.10;62.00;;;;;;3160745;28;20083;-76
2021/06/06 04:54:27;;;;;;;8.15;7.45;;;21.10;62.00;;;;;;3160963;28;20508;-77
2021/06/06 04:55:59;;;;;;;7.97;7.28;;;21.10;61.90;;;;;;3160424;28;20125;-77
2021/06/06 04:57:29;;;;;;;8.60;7.80;;;21.10;61.90;;;;;;3160542;28;20134;-77
2021/06/06 04:59:00;;;;;;;8.02;7.32;;;21.10;62.10;;;;;;3160891;28;20524;-77
2021/06/06 05:00:34;;;;;;;8.27;7.47;;;21.10;62.20;;;;;;3159588;28;20067;-78
2021/06/06 05:02:09;;;;;;;7.72;7.03;;;21.10;62.00;;;;;;3160638;28;20075;-77
2021/06/06 05:03:39;;;;;;;8.00;7.30;;;21.10;62.10;;;;;;3160728;28;20059;-76
2021/06/06 05:05:12;;;;;;;8.45;7.65;;;21.10;62.10;;;;;;3160737;28;20548;-77
2021/06/06 05:06:43;;;;;;;7.95;7.25;;;21.10;62.10;;;;;;3160146;28;20052;-77
2021/06/06 05:08:14;;;;;;;8.55;7.75;;;21.10;62.10;;;;;;3160493;28;20082;-77
2021/06/06 05:09:45;;;;;;;7.60;6.90;;;21.10;61.90;;;;;;3160628;28;20067;-76
2021/06/06 05:11:16;;;;;;;7.93;7.22;;;21.10;62.10;;;;;;3160180;28;20040;-76
2021/06/06 05:12:47;;;;;;;7.80;7.10;;;21.10;62.10;;;;;;3160569;28;20548;-77
2021/06/06 05:14:19;;;;;;;7.65;7.05;;;21.10;62.10;;;;;;3160589;28;20102;-77
2021/06/06 05:15:52;;;;;;;7.90;7.30;;;21.10;62.20;;;;;;3159100;28;20048;-77
2021/06/06 05:17:23;;;;;;;;;;;21.10;62.10;;;;;;3160896;28;20093;-77
2021/06/06 05:18:55;;;;;;;8.07;7.28;;;21.10;62.10;;;;;;3160679;28;19919;-76
2021/06/06 05:20:27;;;;;;;8.15;7.45;;;21.10;62.20;;;;;;3159887;28;20135;-77
2021/06/06 05:21:58;;;;;;;7.25;6.65;;;21.10;62.10;;;;;;3160575;28;20551;-77
2021/06/06 05:23:30;;;;;;;8.15;7.35;;;21.10;62.20;;;;;;3160448;28;20084;-77
2021/06/06 05:25:01;;;;;;;8.20;7.50;;;21.10;62.10;;;;;;3160721;28;20087;-77
2021/06/06 05:26:32;;;;;;;7.97;7.28;;;21.10;62.10;;;;;;3159891;28;20174;-77
2021/06/06 05:28:03;;;;;;;7.60;6.90;;;21.10;62.10;;;;;;3160396;28;20129;-76
2021/06/06 05:29:35;;;;;;;8.13;7.32;;;21.10;62.10;;;;;;3160233;28;20672;-77
2021/06/06 05:31:07;;;;;;;7.38;6.78;;;21.10;62.00;;;;;;3159246;28;20067;-77
2021/06/06 05:32:38;;;;;;;7.65;6.95;;;21.10;62.00;;;;;;3160560;28;20067;-78
2021/06/06 05:34:09;;;;;;;7.70;7.00;;;21.10;61.90;;;;;;3159771;28;20491;-77
2021/06/06 05:35:41;;;;;;;7.38;6.70;;;21.10;62.00;;;;;;3159540;28;20141;-78
2021/06/06 05:37:13;;;;;;;7.40;6.80;;;21.10;62.00;;;;;;3160198;28;20131;-77
2021/06/06 05:38:44;;;;;;;7.60;7.00;;;21.10;61.90;;;;;;3160518;28;20044;-77
2021/06/06 05:40:15;;;;;;;7.15;6.55;;;21.10;61.90;;;;;;3159483;28;20768;-76
2021/06/06 05:41:46;;;;;;;7.32;6.72;;;21.10;61.90;;;;;;3160268;28;20040;-77
2021/06/06 05:43:17;;;;;;;7.20;6.60;;;21.10;61.90;;;;;;3160197;28;20090;-75
2021/06/06 05:44:48;;;;;;;7.22;6.63;;;21.10;61.90;;;;;;3160390;28;20051;-77
2021/06/06 05:46:21;;;;;;;8.02;7.32;;;21.10;61.90;;;;;;3159029;28;20067;-77
2021/06/06 05:47:52;;;;;;;7.20;6.50;;;21.10;61.80;;;;;;3160360;28;20072;-77
2021/06/06 05:49:23;;;;;;;7.80;6.80;;;21.10;61.80;;;;;;3160328;28;20051;-76
2021/06/06 05:50:56;;;;;;;7.03;6.32;;;21.10;61.90;;;;;;3159730;28;20067;-76
2021/06/06 05:52:27;;;;;;;7.03;6.43;;;21.10;61.90;;;;;;3159979;28;20508;-77
2021/06/06 05:53:58;;;;;;;7.30;6.70;;;21.10;61.80;;;;;;3160018;28;20087;-77
2021/06/06 05:55:29;;;;;;;7.13;6.43;;;21.10;62.00;;;;;;3159456;28;20079;-77
2021/06/06 05:57:00;;;;;;;7.50;6.90;;;21.10;61.80;;;;;;3160272;28;20121;-77
2021/06/06 05:58:31;;;;;;;7.13;6.53;;;21.10;62.00;;;;;;3160120;28;20615;-77
2021/06/06 06:00:04;;;;;;;7.22;6.63;;;21.10;61.80;;;;;;3159912;28;20150;-77
2021/06/06 06:01:37;;;;;;;7.20;6.50;;;21.20;62.00;;;;;;3159058;28;20063;-77
2021/06/06 06:03:07;;;;;;;7.45;6.75;;;21.20;61.90;;;;;;3159933;28;20596;-77
2021/06/06 06:04:39;;;;;;;7.78;6.80;;;21.20;62.00;;;;;;3159923;28;20085;-76
2021/06/06 06:06:10;;;;;;;7.10;6.43;;;21.20;61.90;;;;;;3159408;28;20335;-77
2021/06/06 06:07:40;;;;;;;7.30;6.60;;;21.20;62.00;;;;;;3160120;28;20051;-77
2021/06/06 06:09:11;;;;;;;6.78;6.15;;;21.20;62.10;;;;;;3159765;28;20051;-76
2021/06/06 06:10:42;;;;;;;6.93;6.32;;;21.20;62.00;;;;;;3159281;28;20512;-76
2021/06/06 06:12:13;;;;;;;7.30;6.57;;;21.20;62.10;;;;;;3159904;28;20040;-77
2021/06/06 06:13:44;;;;;;;7.30;6.70;;;21.20;62.00;;;;;;3160093;28;20086;-77
2021/06/06 06:15:15;;;;;;;6.85;6.25;;;21.20;62.00;;;;;;3158204;28;20040;-77
2021/06/06 06:16:48;;;;;;;7.22;6.63;;;21.20;62.20;;;;;;3159820;28;20508;-76
2021/06/06 06:18:19;;;;;;;6.90;6.30;;;21.20;62.10;;;;;;3159830;28;20113;-76
2021/06/06 06:19:50;;;;;;;7.15;6.45;;;21.20;62.00;;;;;;3159723;28;20044;-77
2021/06/06 06:21:21;;;;;;;7.60;6.90;;;21.20;62.10;;;;;;3159363;28;20483;-77
2021/06/06 06:22:52;;;;;;;7.15;6.38;;;21.20;62.10;;;;;;3159844;28;20051;-77
2021/06/06 06:24:24;;;;;;;6.95;6.35;;;21.20;62.00;;;;;;3160107;28;20119;-77
2021/06/06 06:25:55;;;;;;;7.18;6.47;;;21.20;62.10;;;;;;3160127;28;20082;-76
2021/06/06 06:27:25;;;;;;;7.00;6.40;;;21.20;62.10;;;;;;3160333;28;20051;-77
2021/06/06 06:28:56;;;;;;;7.00;6.35;;;21.20;62.00;;;;;;3160599;28;20063;-77
2021/06/06 06:30:30;;;;;;;6.90;6.40;;;21.20;61.90;;;;;;3158273;28;20074;-77
2021/06/06 06:32:04;;;;;;;6.63;6.03;;;21.20;62.00;;;;;;3159243;28;20181;-76
2021/06/06 06:33:35;;;;;;;8.20;6.20;;;21.20;61.90;;;;;;3159611;28;20055;-77
2021/06/06 06:35:07;;;;;;;6.90;6.30;;;21.20;61.90;;;;;;3159381;28;20041;-76
2021/06/06 06:36:38;;;;;;;6.65;6.05;;;21.20;62.00;;;;;;3159248;28;20134;-77
2021/06/06 06:38:09;;;;;;;6.60;6.03;;;21.20;61.90;;;;;;3159642;28;20082;-77
2021/06/06 06:39:40;;;;;;;6.72;6.10;;;21.20;62.00;;;;;;3159529;28;20468;-76
2021/06/06 06:41:11;;;;;;;6.93;6.35;;;21.20;61.90;;;;;;3159073;28;20036;-77
2021/06/06 06:42:42;;;;;;;7.75;6.97;;;21.20;61.90;;;;;;3159770;28;20075;-77
2021/06/06 06:44:13;;;;;;;7.15;6.45;;;21.20;62.00;;;;;;3159477;28;20401;-77
2021/06/06 06:45:44;;;;;;;6.82;6.22;;;21.20;61.90;;;;;;3158091;28;20067;-78
2021/06/06 06:47:16;;;;;;;7.00;6.40;;;21.20;61.90;;;;;;3159652;28;20458;-77
2021/06/06 06:48:47;;;;;;;6.97;6.38;;;21.20;62.00;;;;;;3159637;28;20048;-77
2021/06/06 06:50:19;;;;;;;6.57;6.00;;;21.20;62.10;;;;;;3158781;28;20055;-77
2021/06/06 06:51:50;;;;;;;6.55;6.05;;;21.20;62.00;;;;;;3159530;28;20100;-78
2021/06/06 06:53:21;;;;;;;6.97;6.38;;;21.20;62.00;;;;;;3159618;28;20143;-78
2021/06/06 06:54:52;;;;;;;6.90;6.30;;;21.20;61.90;;;;;;3159372;28;20044;-77
2021/06/06 06:56:24;;;;;;;6.03;5.53;;;21.20;62.00;;;;;;3158852;28;20078;-76
2021/06/06 06:57:55;;;;;;;7.03;6.43;;;21.20;62.00;;;;;;3159498;28;20086;-77
2021/06/06 06:59:27;;;;;;;6.72;6.18;;;21.20;62.10;;;;;;3159523;28;20075;-77
2021/06/06 07:00:58;;;;;;;6.63;6.13;;;21.20;61.90;;;;;;3157963;28;20055;-77
2021/06/06 07:02:31;;;;;;;7.05;6.45;;;21.20;61.90;;;;;;3159204;28;20048;-77
2021/06/06 07:04:02;;;;;;;6.70;6.00;;;21.20;62.00;;;;;;3159589;28;20140;-77
2021/06/06 07:05:33;;;;;;;7.10;6.50;;;21.20;61.90;;;;;;3158705;28;20044;-77
2021/06/06 07:07:04;;;;;;;7.40;6.70;;;21.20;62.00;;;;;;3159249;28;20480;-77
2021/06/06 07:08:36;;;;;;;6.43;5.93;;;21.20;62.00;;;;;;3159460;28;20075;-77
2021/06/06 07:10:10;;;;;;;6.93;6.40;;;21.20;61.90;;;;;;3159337;28;20048;-77
2021/06/06 07:11:42;;;;;;;6.60;6.00;;;21.20;62.00;;;;;;3158721;28;20592;-77
2021/06/06 07:13:12;;;;;;;7.20;6.50;;;21.20;61.90;;;;;;3159015;28;20087;-77
2021/06/06 07:14:43;;;;;;;8.27;6.47;;;21.20;61.90;;;;;;3158939;28;20507;-78
2021/06/06 07:16:15;;;;;;;6.82;6.22;;;21.20;61.90;;;;;;3157929;28;20058;-77
2021/06/06 07:17:47;;;;;;;7.38;6.68;;;21.20;61.90;;;;;;3159206;28;20075;-77
2021/06/06 07:19:18;;;;;;;6.43;5.82;;;21.20;62.00;;;;;;3159244;28;20520;-76
2021/06/06 07:20:55;;;;;;;6.80;6.20;;;21.20;61.90;;;;;;3158640;28;20102;-77
2021/06/06 07:22:26;;;;;;;6.45;5.95;;;21.20;61.90;;;;;;3158942;28;20052;-76
2021/06/06 07:23:57;;;;;;;6.80;6.20;;;21.20;61.90;;;;;;3159226;28;20178;-77
2021/06/06 07:25:28;;;;;;;6.53;5.93;;;21.20;61.80;;;;;;3158513;28;20040;-76
2021/06/06 07:26:59;;;;;;;6.60;6.07;;;21.20;61.80;;;;;;3159238;28;20075;-77
2021/06/06 07:28:29;;;;;;;6.55;6.03;;;21.20;61.80;;;;;;3158966;28;20047;-77
2021/06/06 07:30:00;;;;;;;6.47;5.90;;;21.20;61.80;;;;;;3158980;28;20048;-77
2021/06/06 07:31:31;;;;;;;6.60;6.00;;;21.20;62.00;;;;;;3157533;28;20101;-77
2021/06/06 07:33:05;;;;;;;6.55;6.00;;;21.20;61.90;;;;;;3159346;28;20059;-77
2021/06/06 07:34:36;;;;;;;6.30;5.80;;;21.20;62.00;;;;;;3158895;28;20499;-76
2021/06/06 07:36:08;;;;;;;6.15;5.65;;;21.20;62.00;;;;;;3158339;28;20060;-76
2021/06/06 07:37:39;;;;;;;6.57;6.05;;;21.20;61.90;;;;;;3159184;28;20048;-76
2021/06/06 07:39:10;;;;;;;6.68;6.07;;;21.20;61.90;;;;;;3159163;28;20574;-76
2021/06/06 07:40:42;;;;;;;6.68;6.07;;;21.20;61.90;;;;;;3158304;28;20114;-77
2021/06/06 07:42:13;;;;;;;7.03;6.43;;;21.20;62.00;;;;;;3158885;28;20433;-77
2021/06/06 07:43:44;;;;;;;7.05;6.35;;;21.10;61.90;;;;;;3159061;28;20448;-77
2021/06/06 07:45:15;;;;;;;6.57;5.97;;;21.20;61.90;;;;;;3157394;28;20082;-77
2021/06/06 07:46:46;;;;;;;6.53;5.93;;;21.20;61.80;;;;;;3158998;28;20492;-77
2021/06/06 07:48:19;;;;;;;6.28;5.68;;;21.20;61.90;;;;;;3158989;28;20052;-76
2021/06/06 07:49:50;;;;;;;6.47;5.88;;;21.20;61.80;;;;;;3158942;28;20090;-76
2021/06/06 07:51:22;;;;;;;6.78;6.25;;;21.20;61.90;;;;;;3158213;28;20131;-76
2021/06/06 07:52:53;;;;;;;7.00;6.40;;;21.20;61.90;;;;;;3158813;28;20052;-78
2021/06/06 07:54:24;;;;;;;6.82;6.22;;;21.20;62.00;;;;;;3158775;28;20075;-76
2021/06/06 07:55:56;;;;;;;6.32;5.72;;;21.20;61.80;;;;;;3158341;28;20078;-77
2021/06/06 07:57:26;;;;;;;6.85;6.25;;;21.20;61.80;;;;;;3158144;28;20525;-76
2021/06/06 07:58:57;;;;;;;6.25;5.75;;;21.20;61.90;;;;;;3158917;28;20047;-77